Startpagina
METAR-TAF:

METAR-TAF

Vliegvelden :

Alpnach, Zwitserland

breedte: 46-56-19N, lengte: 8-17-03E, hoogte: 440 m

Actueel weer

Dit bericht is 22 minuten geleden gemaakt, om 02:20 UTC
Wind 6 kt uit het zuidzuidwesten
Temperatuur 14°C
Vochtigheid 94%
Druk 1018 hPa
Zicht 10 km of meer

METAR: LSMA 240220Z AUTO 21006KT 9999NDV NCD 14/13 Q1018 RMK

Tijdstip: 04:42 (02:42 UTC)


TAF: ontbreekt

Waarnemingen en weersverwachtingen van meer dan 4000 vliegvelden (METAR en TAF).

De beschikbare stations zijn de gele en rode punten op de kaart.

Ga met uw muis naar het station om de naam te zien.

Klik dan om waarnemingen en weersverwachtingen te zien.

kaart wijzigen: klik op de groene knoppen met een zwart kruis om in te zoomen, op de groene knop met een streepje om uit te zoomen of op de groene pijlen voor aangrenzende kaarten.


METAR-TAF: